Time;durP1;ratioP1;P1;durP2;ratioP2;P2;SDS_P1;SDS_P2;PMS_P1;PMS_P2;Temp;Humidity;BMP_temperature;BMP_pressure;BME280_temperature;BME280_humidity;BME280_pressure;Samples;Min_cycle;Max_cycle;Signal;HPM_P1;HPM_P2
2022/07/19 05:20:55;;;;;;;0.60;0.40;;;;;;;-145.06;100.00;60892.56;6066373;22;19907;-88
2022/07/19 05:26:51;;;;;;;0.32;0.30;;;;;;;-145.06;100.00;60892.56;6059753;22;20019;-92
2022/07/19 05:29:54;;;;;;;0.35;0.30;;;;;;;-145.06;100.00;60892.56;5966515;23;20080;-91
2022/07/19 05:32:46;;;;;;;0.50;0.30;;;;;;;-145.06;100.00;60892.56;5945057;23;20473;-90
2022/07/19 05:40:38;;;;;;;;;;;;;;;;;;;;;
2022/07/19 05:51:12;;;;;;;0.65;0.40;;;;;;;-145.06;100.00;60892.56;6086844;22;20378;-89
2022/07/19 06:10:45;;;;;;;0.60;0.40;;;;;;;-145.06;100.00;60892.56;6067954;22;20007;-90
2022/07/19 06:13:42;;;;;;;0.63;0.40;;;;;;;-145.06;100.00;60892.56;6035444;22;20003;-91
2022/07/19 06:16:46;;;;;;;0.35;0.30;;;;;;;-145.06;100.00;60892.56;6026953;23;20175;-89
2022/07/19 06:19:26;;;;;;;0.32;0.28;;;;;;;-145.06;100.00;60892.56;6005245;23;20008;-89
2022/07/19 06:22:05;;;;;;;0.50;0.30;;;;;;;-145.06;100.00;60892.56;6006151;23;20083;-89
2022/07/19 06:45:56;;;;;;;0.45;0.40;;;;;;;-145.06;100.00;60892.56;6074703;22;20386;-90
2022/07/19 06:49:36;;;;;;;0.73;0.45;;;;;;;-145.06;100.00;60892.56;6064262;22;19995;-89
2022/07/19 06:52:53;;;;;;;0.50;0.40;;;;;;;-145.06;100.00;60892.56;6086016;22;20086;-90
2022/07/19 07:01:46;;;;;;;0.30;0.30;;;;;;;-145.06;100.00;60892.56;6035145;22;20003;-89
2022/07/19 14:55:28;;;;;;;0.13;0.13;;;;;;;-145.06;100.00;60892.56;6086349;22;20048;-89
2022/07/19 14:58:07;;;;;;;0.30;0.22;;;;;;;-145.06;100.00;60892.56;6063333;22;20737;-88
2022/07/19 15:00:46;;;;;;;0.50;0.20;;;;;;;-145.06;100.00;60892.56;6061948;22;20007;-89
2022/07/19 15:03:25;;;;;;;0.45;0.30;;;;;;;-145.06;100.00;60892.56;6063643;22;20034;-89
2022/07/19 15:06:05;;;;;;;0.65;0.30;;;;;;;-145.06;100.00;60892.56;6034209;22;20012;-89
2022/07/19 15:08:44;;;;;;;0.60;0.30;;;;;;;-145.06;100.00;60892.56;6035259;22;20437;-90
2022/07/19 15:11:23;;;;;;;0.68;0.30;;;;;;;-145.06;100.00;60892.56;6067979;22;20004;-89
2022/07/19 15:14:09;;;;;;;0.52;0.20;;;;;;;-145.06;100.00;60892.56;6035635;22;20007;-90
2022/07/19 15:16:48;;;;;;;0.40;0.30;;;;;;;-145.06;100.00;60892.56;6066734;22;20307;-90
2022/07/19 15:23:23;;;;;;;1.42;0.50;;;;;;;-145.06;100.00;60892.56;5977693;23;20380;-90
2022/07/19 16:39:46;;;;;;;0.82;0.30;;;;;;;-145.06;100.00;60892.56;5980860;23;20012;-91
2022/07/19 16:42:31;;;;;;;0.55;0.20;;;;;;;-145.06;100.00;60892.56;6067393;22;20019;-92
2022/07/19 16:45:46;;;;;;;0.45;0.30;;;;;;;-145.06;100.00;60892.56;6102846;22;20003;-90
2022/07/19 16:52:20;;;;;;;0.30;0.20;;;;;;;-145.06;100.00;60892.56;6009345;23;20013;-90
2022/07/19 16:55:37;;;;;;;0.40;0.40;;;;;;;-145.06;100.00;60892.56;5978698;23;20083;-92
2022/07/19 16:58:16;;;;;;;1.08;0.20;;;;;;;-145.06;100.00;60892.56;5977858;23;20000;-92
2022/07/19 17:01:25;;;;;;;0.22;0.20;;;;;;;-145.06;100.00;60892.56;5976321;23;20064;-92
2022/07/19 17:04:07;;;;;;;0.47;0.28;;;;;;;-145.06;100.00;60892.56;6057332;22;20003;-92
2022/07/19 17:07:04;;;;;;;1.90;0.30;;;;;;;-145.06;100.00;60892.56;6067869;22;20011;-92
2022/07/19 17:10:06;;;;;;;1.20;0.30;;;;;;;-145.06;100.00;60892.56;6067660;22;20425;-92
2022/07/19 17:12:59;;;;;;;0.45;0.20;;;;;;;-145.06;100.00;60892.56;6064998;22;20003;-92
2022/07/19 17:18:19;;;;;;;0.35;0.20;;;;;;;-145.06;100.00;60892.56;6092513;22;20137;-91
2022/07/19 17:21:03;;;;;;;0.47;0.20;;;;;;;-145.06;100.00;60892.56;6070498;22;20078;-93
2022/07/19 17:23:47;;;;;;;1.30;0.30;;;;;;;-145.06;100.00;60892.56;6102725;22;20006;-92
2022/07/19 17:26:38;;;;;;;0.25;0.20;;;;;;;-145.06;100.00;60892.56;6069768;22;20007;-90
2022/07/19 17:29:17;;;;;;;0.75;0.20;;;;;;;-145.06;100.00;60892.56;6070232;22;20003;-92
2022/07/19 17:32:10;;;;;;;0.40;0.20;;;;;;;-145.06;100.00;60892.56;6069103;22;20323;-91
2022/07/19 17:34:52;;;;;;;0.40;0.25;;;;;;;-145.06;100.00;60892.56;6068466;22;20007;-91
2022/07/19 17:37:34;;;;;;;0.85;0.30;;;;;;;-145.06;100.00;60892.56;6068186;22;20030;-92
2022/07/19 17:40:26;;;;;;;0.30;0.20;;;;;;;-145.06;100.00;60892.56;6068713;22;20030;-92
2022/07/19 17:43:08;;;;;;;0.50;0.30;;;;;;;-145.06;100.00;60892.56;6068239;22;20003;-92
2022/07/19 17:45:50;;;;;;;0.15;0.10;;;;;;;-145.06;100.00;60892.56;6066466;22;20003;-91
2022/07/19 17:48:32;;;;;;;0.30;0.22;;;;;;;-145.06;100.00;60892.56;6066845;22;19999;-92
2022/07/19 17:51:11;;;;;;;0.50;0.30;;;;;;;-145.06;100.00;60892.56;6067429;22;20003;-91
2022/07/19 17:53:50;;;;;;;0.40;0.30;;;;;;;-145.06;100.00;60892.56;6066417;22;20089;-92
2022/07/19 17:57:10;;;;;;;1.13;0.20;;;;;;;-145.06;100.00;60892.56;6070065;22;20003;-92
2022/07/19 18:00:10;;;;;;;0.28;0.20;;;;;;;-145.06;100.00;60892.56;6069176;22;20426;-91
2022/07/19 18:02:53;;;;;;;0.73;0.30;;;;;;;-145.06;100.00;60892.56;6066799;22;20003;-90
2022/07/19 18:05:37;;;;;;;0.38;0.20;;;;;;;-145.06;100.00;60892.56;6066829;22;20003;-91
2022/07/19 18:08:37;;;;;;;0.55;0.22;;;;;;;-145.06;100.00;60892.56;6070180;22;20003;-91
2022/07/19 18:11:19;;;;;;;1.67;0.30;;;;;;;-145.06;100.00;60892.56;6069065;22;19999;-91
2022/07/19 18:14:04;;;;;;;0.63;0.20;;;;;;;-145.06;100.00;60892.56;6069084;22;20003;-92
2022/07/19 18:16:48;;;;;;;0.40;0.20;;;;;;;-145.06;100.00;60892.56;6081760;22;20037;-92
2022/07/19 18:19:41;;;;;;;1.58;0.30;;;;;;;-145.06;100.00;60892.56;6090713;22;20016;-93
2022/07/19 18:22:40;;;;;;;0.20;0.10;;;;;;;-145.06;100.00;60892.56;6078607;22;20438;-92
2022/07/19 18:25:20;;;;;;;0.55;0.17;;;;;;;-145.06;100.00;60892.56;6068243;22;20007;-91
2022/07/19 18:27:59;;;;;;;0.47;0.28;;;;;;;-145.06;100.00;60892.56;6067992;22;20027;-91
2022/07/19 18:30:41;;;;;;;0.70;0.30;;;;;;;-145.06;100.00;60892.56;6067592;22;20003;-91
2022/07/19 18:33:29;;;;;;;0.20;0.20;;;;;;;-145.06;100.00;60892.56;6069483;22;20007;-91
2022/07/19 18:36:13;;;;;;;0.40;0.20;;;;;;;-145.06;100.00;60892.56;6069949;22;19999;-92
2022/07/19 18:39:29;;;;;;;0.70;0.40;;;;;;;-145.06;100.00;60892.56;6070180;22;20015;-91
2022/07/19 18:42:37;;;;;;;0.40;0.25;;;;;;;-145.06;100.00;60892.56;6070222;22;20448;-92
2022/07/19 18:45:18;;;;;;;0.60;0.22;;;;;;;-145.06;100.00;60892.56;6070654;22;20003;-91
2022/07/19 18:47:56;;;;;;;0.85;0.35;;;;;;;-145.06;100.00;60892.56;6070030;22;20007;-92
2022/07/19 18:50:36;;;;;;;;;;;;;;;-145.06;100.00;60892.56;6070421;22;19999;-92
2022/07/19 18:53:23;;;;;;;1.10;0.30;;;;;;;187.52;100.00;60892.56;6069581;22;20325;-92
2022/07/19 18:56:06;;;;;;;0.20;0.20;;;;;;;-145.06;100.00;60892.56;6069647;22;20078;-93
2022/07/19 18:58:48;;;;;;;0.40;0.20;;;;;;;-145.06;100.00;60892.56;6069705;22;20035;-91
2022/07/19 19:01:30;;;;;;;0.57;0.20;;;;;;;36.15;100.00;60892.56;6069381;22;20003;-91
2022/07/19 19:04:12;;;;;;;0.43;0.30;;;;;;;-145.06;100.00;60892.56;6069896;22;20429;-93
2022/07/19 19:06:57;;;;;;;1.95;0.40;;;;;;;-145.06;100.00;60892.56;6069804;22;20007;-91
2022/07/19 19:09:39;;;;;;;0.45;0.20;;;;;;;-145.06;100.00;60892.56;6069523;22;20011;-92
2022/07/19 19:12:37;;;;;;;0.45;0.40;;;;;;;-145.06;100.00;60892.56;6069814;22;20003;-92
2022/07/19 19:15:19;;;;;;;0.40;0.30;;;;;;;-145.06;100.00;60892.56;6070450;22;19999;-91
2022/07/19 19:18:19;;;;;;;1.00;0.20;;;;;;;-145.06;100.00;60892.56;6072476;22;20007;-92
2022/07/19 19:21:17;;;;;;;0.45;0.32;;;;;;;-145.06;100.00;60892.56;6071761;22;20027;-92
2022/07/19 19:24:57;;;;;;;0.70;0.30;;;;;;;-145.06;100.00;60892.56;6071604;22;19999;-92
2022/07/19 19:28:35;;;;;;;;;;;;;;;;;;;;;
2022/07/19 19:31:48;;;;;;;0.22;0.13;;;;;;;-145.06;100.00;60892.56;5983869;23;20009;-91
2022/07/19 19:42:06;;;;;;;0.63;0.20;;;;;;;-145.06;100.00;60892.56;6104735;22;20011;-93
2022/07/19 19:56:05;;;;;;;0.40;0.30;;;;;;;-145.06;100.00;60892.56;5983119;23;20407;-92
2022/07/19 19:58:44;;;;;;;1.38;0.20;;;;;;;-145.06;100.00;60892.56;5949435;23;20009;-93
2022/07/19 20:02:03;;;;;;;;;;;;;;;;;;;;;
2022/07/19 20:27:12;;;;;;;3.40;0.40;;;;;;;-145.06;100.00;60892.56;6091292;22;20019;-89
2022/07/19 20:30:42;;;;;;;0.98;0.40;;;;;;;-145.06;100.00;60892.56;6069099;22;20074;-94
2022/07/19 20:34:33;;;;;;;0.60;0.40;;;;;;;-145.06;100.00;60892.56;6069434;22;20023;-92
2022/07/19 20:44:25;;;;;;;0.82;0.40;;;;;;;-145.06;100.00;60892.56;6069793;22;20008;-93
2022/07/19 20:50:49;;;;;;;1.38;0.35;;;;;;;-145.06;100.00;60892.56;5984468;22;20007;-93
2022/07/19 20:53:47;;;;;;;;;;;;;;;;;;;;;
2022/07/19 20:56:46;;;;;;;0.20;0.20;;;;;;;-145.06;100.00;60892.56;6091823;22;20131;-94
2022/07/19 20:59:41;;;;;;;;;;;;;;;;;;;;;
2022/07/19 21:02:33;;;;;;;;;;;;;;;;;;;;;
2022/07/19 21:05:12;;;;;;;0.38;0.30;;;;;;;-145.06;100.00;60892.56;6101429;22;20441;-92
2022/07/19 21:11:36;;;;;;;0.25;0.22;;;;;;;-145.06;100.00;60892.56;6057898;22;20003;-93
2022/07/19 21:14:17;;;;;;;0.57;0.30;;;;;;;-145.06;100.00;60892.56;6067576;22;20003;-93
2022/07/19 21:16:57;;;;;;;0.82;0.30;;;;;;;-145.06;100.00;60892.56;6067773;22;20003;-93
2022/07/19 21:19:42;;;;;;;1.10;0.57;;;;;;;-145.06;100.00;60892.56;6067292;22;20007;-92
2022/07/19 21:22:36;;;;;;;0.43;0.40;;;;;;;-145.06;100.00;60892.56;6067487;22;20007;-92
2022/07/19 21:25:17;;;;;;;0.60;0.38;;;;;;;-145.06;100.00;60892.56;6067408;22;20007;-93
2022/07/19 21:28:01;;;;;;;0.65;0.30;;;;;;;-145.06;100.00;60892.56;6067819;22;20003;-93
2022/07/19 21:30:43;;;;;;;0.32;0.30;;;;;;;-145.06;100.00;60892.56;6067592;22;19999;-93
2022/07/19 21:33:36;;;;;;;0.40;0.30;;;;;;;-145.06;100.00;60892.56;6067822;22;20003;-93
2022/07/19 21:36:15;;;;;;;0.43;0.35;;;;;;;-145.06;100.00;60892.56;6067846;22;20003;-94
2022/07/19 21:39:20;;;;;;;0.43;0.38;;;;;;;-145.06;100.00;60892.56;6068187;22;19999;-93
2022/07/19 21:41:59;;;;;;;0.43;0.32;;;;;;;-145.06;100.00;60892.56;6068287;22;20418;-93
2022/07/19 21:44:44;;;;;;;0.38;0.38;;;;;;;-145.06;100.00;60892.56;6067236;22;20007;-94
2022/07/19 21:47:23;;;;;;;0.55;0.28;;;;;;;-145.06;100.00;60892.56;6067654;22;20007;-91
2022/07/19 21:50:03;;;;;;;0.40;0.30;;;;;;;-145.06;100.00;60892.56;6067397;22;20303;-93
2022/07/19 21:52:42;;;;;;;0.70;0.40;;;;;;;-145.06;100.00;60892.56;6100690;22;19999;-93
2022/07/19 21:55:21;;;;;;;0.45;0.30;;;;;;;-145.06;100.00;60892.56;6067290;22;20011;-92
2022/07/19 21:58:03;;;;;;;;;;;;;;;-145.06;100.00;60892.56;6068409;22;20003;-92
2022/07/19 22:00:55;;;;;;;0.38;0.22;;;;;;;-145.06;100.00;60892.56;6067363;22;19907;-92
2022/07/19 22:03:43;;;;;;;1.02;0.35;;;;;;;-145.06;100.00;60892.56;6068142;22;20026;-93
2022/07/19 22:06:22;;;;;;;1.25;0.30;;;;;;;-145.06;100.00;60892.56;6067053;22;20485;-93
2022/07/19 22:09:02;;;;;;;0.70;0.40;;;;;;;-145.06;100.00;60892.56;6068054;22;20003;-93
2022/07/19 22:11:47;;;;;;;0.60;0.40;;;;;;;-145.06;100.00;60892.56;6067898;22;20000;-92
2022/07/19 22:14:28;;;;;;;0.63;0.50;;;;;;;-145.06;100.00;60892.56;6067568;22;20007;-92
2022/07/19 22:17:07;;;;;;;1.75;0.57;;;;;;;-145.06;100.00;60892.56;6068763;22;19999;-94
2022/07/19 22:19:46;;;;;;;1.05;0.60;;;;;;;-145.06;100.00;60892.56;6073343;22;19996;-94
2022/07/19 22:22:25;;;;;;;0.98;0.60;;;;;;;-145.06;100.00;60892.56;6091065;22;20011;-94
2022/07/19 22:25:05;;;;;;;1.17;0.68;;;;;;;-145.06;100.00;60892.56;6090828;22;20055;-94
2022/07/19 22:27:44;;;;;;;0.70;0.60;;;;;;;-145.06;100.00;60892.56;6068883;22;20007;-94
2022/07/19 22:30:27;;;;;;;0.73;0.60;;;;;;;-145.06;100.00;60892.56;6067754;22;20031;-92
2022/07/19 22:33:07;;;;;;;1.15;0.80;;;;;;;-145.06;100.00;60892.56;6067091;22;20000;-93
2022/07/19 22:35:46;;;;;;;4.03;0.82;;;;;;;-145.06;100.00;60892.56;6067431;22;20003;-93
2022/07/19 22:38:25;;;;;;;1.10;0.80;;;;;;;-145.06;100.00;60892.56;6067139;22;20003;-93
2022/07/19 22:41:04;;;;;;;0.57;0.45;;;;;;;-145.06;100.00;60892.56;6067177;22;20003;-92
2022/07/19 22:43:43;;;;;;;0.90;0.80;;;;;;;-145.06;100.00;60892.56;6067890;22;20003;-93
2022/07/19 22:46:22;;;;;;;0.75;0.45;;;;;;;-145.06;100.00;60892.56;6067134;22;20043;-92
2022/07/19 22:49:01;;;;;;;1.02;0.47;;;;;;;-145.06;100.00;60892.56;6067901;22;20003;-93
2022/07/19 22:51:40;;;;;;;1.08;0.65;;;;;;;-145.06;100.00;60892.56;6067321;22;19999;-92
2022/07/19 22:54:19;;;;;;;1.15;0.60;;;;;;;-145.06;100.00;60892.56;6067357;22;20015;-92
2022/07/19 22:56:57;;;;;;;1.42;0.50;;;;;;;-145.06;100.00;60892.56;6067305;22;20003;-93
2022/07/19 22:59:36;;;;;;;0.77;0.63;;;;;;;-145.06;100.00;60892.56;6100534;22;20003;-91
2022/07/19 23:02:16;;;;;;;1.67;0.80;;;;;;;-145.06;100.00;60892.56;6067359;22;20054;-92
2022/07/19 23:04:55;;;;;;;1.13;0.60;;;;;;;-145.06;100.00;60892.56;6067156;22;20410;-92
2022/07/19 23:07:35;;;;;;;0.95;0.60;;;;;;;-145.06;100.00;60892.56;6067181;22;20038;-92
2022/07/19 23:10:14;;;;;;;0.93;0.60;;;;;;;-145.06;100.00;60892.56;6067607;22;20003;-92
2022/07/19 23:12:53;;;;;;;0.95;0.60;;;;;;;-145.06;100.00;60892.56;6067786;22;20004;-93
2022/07/19 23:15:32;;;;;;;0.70;0.60;;;;;;;-145.06;100.00;60892.56;6067077;22;20003;-92
2022/07/19 23:18:11;;;;;;;1.42;0.60;;;;;;;-145.06;100.00;60892.56;6068308;22;20034;-92
2022/07/19 23:20:50;;;;;;;1.42;0.80;;;;;;;-145.06;100.00;60892.56;6069016;22;19999;-91
2022/07/19 23:23:28;;;;;;;0.60;0.60;;;;;;;-145.06;100.00;60892.56;6068878;22;20042;-93
2022/07/19 23:26:07;;;;;;;0.30;0.30;;;;;;;-145.06;100.00;60892.56;6068741;22;20074;-93
2022/07/19 23:28:46;;;;;;;0.60;0.50;;;;;;;-145.06;100.00;60892.56;6069283;22;20007;-94
2022/07/19 23:31:25;;;;;;;0.60;0.50;;;;;;;-145.06;100.00;60892.56;6069116;22;20000;-92
2022/07/19 23:34:04;;;;;;;0.63;0.60;;;;;;;-145.06;100.00;60892.56;6069196;22;20007;-92
2022/07/19 23:36:43;;;;;;;1.08;0.57;;;;;;;-145.06;100.00;60892.56;6068755;22;20011;-94
2022/07/19 23:39:23;;;;;;;0.65;0.43;;;;;;;-145.06;100.00;60892.56;6068485;22;20003;-92
2022/07/19 23:42:02;;;;;;;1.40;0.50;;;;;;;-145.06;100.00;60892.56;6068512;22;20025;-91
2022/07/19 23:44:41;;;;;;;0.52;0.35;;;;;;;-145.06;100.00;60892.56;6067944;22;20011;-91
2022/07/19 23:47:20;;;;;;;0.77;0.50;;;;;;;-145.06;100.00;60892.56;6067425;22;20007;-92
2022/07/19 23:49:59;;;;;;;1.17;0.50;;;;;;;-145.06;100.00;60892.56;6067678;22;20003;-92
2022/07/19 23:52:38;;;;;;;0.32;0.30;;;;;;;-145.06;100.00;60892.56;6067976;22;20010;-92
2022/07/19 23:55:17;;;;;;;0.90;0.45;;;;;;;-145.06;100.00;60892.56;6068475;22;20011;-93
2022/07/19 23:57:59;;;;;;;1.00;0.52;;;;;;;-145.06;100.00;60892.56;6068017;22;20007;-93
